createdAt,value
2022-11-29T00:01:21.233Z,12.26
2022-11-29T00:03:49.189Z,12.21
2022-11-29T00:06:20.195Z,12.21
2022-11-29T00:08:48.322Z,12.08
2022-11-29T00:11:38.133Z,12.16
2022-11-29T00:14:06.573Z,12.20
2022-11-29T00:16:34.482Z,12.34
2022-11-29T00:19:02.868Z,12.49
2022-11-29T00:21:31.959Z,12.42
2022-11-29T00:23:59.752Z,12.48
2022-11-29T00:26:27.508Z,12.58
2022-11-29T00:28:55.785Z,12.63
2022-11-29T00:31:26.111Z,12.63
2022-11-29T00:33:54.193Z,12.78
2022-11-29T00:36:21.968Z,12.10
2022-11-29T00:38:51.192Z,11.82
2022-11-29T00:41:18.994Z,11.70
2022-11-29T00:43:46.933Z,12.17
2022-11-29T00:46:14.733Z,12.09
2022-11-29T00:48:42.572Z,12.05
2022-11-29T00:51:10.833Z,12.18
2022-11-29T00:53:38.900Z,12.53
2022-11-29T00:56:09.181Z,12.53
2022-11-29T00:58:37.445Z,12.72
2022-11-29T01:01:05.715Z,12.90
2022-11-29T01:03:33.743Z,12.83
2022-11-29T01:06:02.277Z,12.83
2022-11-29T01:08:30.241Z,12.69
2022-11-29T01:11:06.309Z,12.11
2022-11-29T01:13:36.034Z,12.49
2022-11-29T01:16:04.894Z,12.62
2022-11-29T01:18:33.273Z,12.74
2022-11-29T01:21:02.937Z,12.67
2022-11-29T01:23:31.203Z,12.97
2022-11-29T01:26:00.839Z,12.99
2022-11-29T01:28:29.389Z,12.89
2022-11-29T01:30:58.565Z,12.86
2022-11-29T01:33:26.426Z,13.22
2022-11-29T01:35:55.588Z,13.21
2022-11-29T01:38:24.233Z,13.32
2022-11-29T01:40:59.927Z,13.07
2022-11-29T01:43:27.868Z,12.75
2022-11-29T01:45:56.041Z,12.50
2022-11-29T01:48:26.755Z,12.85
2022-11-29T01:50:55.496Z,13.00
2022-11-29T01:53:23.332Z,13.13
2022-11-29T01:55:54.286Z,13.13
2022-11-29T01:58:22.585Z,13.18
2022-11-29T02:00:50.655Z,12.84
2022-11-29T02:03:19.268Z,12.86
2022-11-29T02:05:50.365Z,12.94
2022-11-29T02:08:22.878Z,13.00
2022-11-29T02:11:01.798Z,13.11
2022-11-29T02:13:34.935Z,13.12
2022-11-29T02:16:07.323Z,12.82
2022-11-29T02:18:43.932Z,13.17
2022-11-29T02:21:30.675Z,12.79
2022-11-29T02:24:12.634Z,13.02
2022-11-29T02:27:00.051Z,12.74
2022-11-29T02:29:39.307Z,13.04
2022-11-29T02:32:49.999Z,12.87
2022-11-29T02:35:31.626Z,12.94
2022-11-29T02:38:18.135Z,12.82
2022-11-29T02:41:22.288Z,12.99
2022-11-29T02:44:05.366Z,12.72
2022-11-29T02:46:48.985Z,13.02
2022-11-29T02:49:28.167Z,12.80
2022-11-29T02:52:00.233Z,12.89
2022-11-29T02:54:31.508Z,13.09
2022-11-29T02:57:02.571Z,13.23
2022-11-29T02:59:43.919Z,13.22
2022-11-29T03:02:19.496Z,13.21
2022-11-29T03:04:51.770Z,13.18
2022-11-29T03:07:25.935Z,13.28
2022-11-29T03:09:57.568Z,13.30
2022-11-29T03:12:30.509Z,13.05
2022-11-29T03:15:02.950Z,12.92
2022-11-29T03:17:35.344Z,12.88
2022-11-29T03:20:23.226Z,12.92
2022-11-29T03:23:04.200Z,12.83
2022-11-29T03:25:37.361Z,12.86
2022-11-29T03:28:08.479Z,12.56
2022-11-29T03:30:38.299Z,12.73
2022-11-29T03:33:10.152Z,12.72
2022-11-29T03:35:43.688Z,12.46
2022-11-29T03:38:18.154Z,12.43
2022-11-29T03:40:50.454Z,12.23
2022-11-29T03:43:22.353Z,12.33
2022-11-29T03:45:55.089Z,12.47
2022-11-29T03:48:29.115Z,12.60
2022-11-29T03:51:01.304Z,12.54
2022-11-29T03:53:34.265Z,12.51
2022-11-29T03:56:03.833Z,12.25
2022-11-29T03:58:40.286Z,12.43
2022-11-29T04:01:29.764Z,12.29
2022-11-29T04:04:13.808Z,12.23
2022-11-29T04:06:52.311Z,12.51
2022-11-29T04:09:36.242Z,12.44
2022-11-29T04:12:36.498Z,12.39
2022-11-29T04:15:27.550Z,12.20
2022-11-29T04:18:29.260Z,12.15
2022-11-29T04:21:20.457Z,12.42
2022-11-29T04:24:00.587Z,12.44
2022-11-29T04:27:00.095Z,12.48
2022-11-29T04:29:49.843Z,12.25
2022-11-29T04:32:37.410Z,12.46
2022-11-29T04:35:19.689Z,12.29
2022-11-29T04:38:21.053Z,12.52
2022-11-29T04:41:01.780Z,12.21
2022-11-29T04:43:43.274Z,12.51
2022-11-29T04:46:29.692Z,12.47
2022-11-29T04:49:11.142Z,12.65
2022-11-29T04:54:42.538Z,12.91
2022-11-29T04:57:14.055Z,13.00
2022-11-29T04:59:46.020Z,13.03
2022-11-29T05:02:23.713Z,13.05
2022-11-29T05:04:57.071Z,12.85
2022-11-29T05:07:30.777Z,12.71
2022-11-29T05:10:06.908Z,12.75
2022-11-29T05:12:40.779Z,12.84
2022-11-29T05:15:33.554Z,12.86
2022-11-29T05:18:07.835Z,12.87
2022-11-29T05:20:41.687Z,12.80
2022-11-29T05:23:24.210Z,12.21
2022-11-29T05:25:57.521Z,12.18
2022-11-29T05:28:34.820Z,12.51
2022-11-29T05:31:15.650Z,12.64
2022-11-29T05:34:18.668Z,12.90
2022-11-29T05:36:52.317Z,13.01
2022-11-29T05:39:37.412Z,12.93
2022-11-29T05:42:17.920Z,12.85
2022-11-29T05:44:47.456Z,12.97
2022-11-29T05:47:21.060Z,12.98
2022-11-29T05:49:56.895Z,13.07
2022-11-29T05:52:26.291Z,12.97
2022-11-29T05:55:18.185Z,12.81
2022-11-29T05:57:52.717Z,12.85
2022-11-29T06:00:21.383Z,12.93
2022-11-29T06:02:55.327Z,12.69
2022-11-29T06:05:27.052Z,12.76
2022-11-29T06:07:57.608Z,12.82
2022-11-29T06:10:28.424Z,12.68
2022-11-29T06:13:07.668Z,12.81
2022-11-29T06:15:59.077Z,12.77
2022-11-29T06:18:47.689Z,12.82
2022-11-29T06:21:22.593Z,12.79
2022-11-29T06:24:01.497Z,12.88
2022-11-29T06:26:46.091Z,12.68
2022-11-29T06:29:25.216Z,12.81
2022-11-29T06:31:56.272Z,12.80
2022-11-29T06:34:31.094Z,12.84
2022-11-29T06:37:03.541Z,12.67
2022-11-29T06:39:32.039Z,12.61
2022-11-29T06:41:59.750Z,12.83
2022-11-29T06:44:29.548Z,12.62
2022-11-29T06:47:02.017Z,12.49
2022-11-29T06:49:31.973Z,12.53
2022-11-29T06:52:08.011Z,12.57
2022-11-29T06:54:50.990Z,12.61
2022-11-29T06:57:23.403Z,12.57
2022-11-29T07:00:01.526Z,12.30
2022-11-29T07:02:39.655Z,12.38
2022-11-29T07:05:15.280Z,12.66
2022-11-29T07:07:43.508Z,12.90
2022-11-29T07:10:17.077Z,12.29
2022-11-29T07:12:45.766Z,11.84
2022-11-29T07:15:19.970Z,12.03
2022-11-29T07:17:59.899Z,12.29
2022-11-29T07:20:31.832Z,12.43
2022-11-29T07:23:04.277Z,12.32
2022-11-29T07:25:40.008Z,12.56
2022-11-29T07:28:18.635Z,12.72
2022-11-29T07:30:53.469Z,12.82
2022-11-29T07:33:25.009Z,12.80
2022-11-29T07:35:57.816Z,12.69
2022-11-29T07:38:30.627Z,12.79
2022-11-29T07:41:01.365Z,12.77
2022-11-29T07:43:40.132Z,12.80
2022-11-29T07:46:09.344Z,12.86
2022-11-29T07:48:37.158Z,12.64
2022-11-29T07:51:05.093Z,12.58
2022-11-29T07:54:04.707Z,12.35
2022-11-29T07:56:32.717Z,12.08
2022-11-29T07:59:00.530Z,12.11
2022-11-29T08:01:29.793Z,12.23
2022-11-29T08:03:57.614Z,12.34
2022-11-29T08:06:26.426Z,12.22
2022-11-29T08:08:54.162Z,12.54
2022-11-29T08:11:21.936Z,12.63
2022-11-29T08:13:49.740Z,12.55
2022-11-29T08:16:18.580Z,12.73
2022-11-29T08:18:48.414Z,12.67
2022-11-29T08:21:18.020Z,12.75
2022-11-29T08:23:45.824Z,12.46
2022-11-29T08:26:13.966Z,12.60
2022-11-29T08:28:41.745Z,12.62
2022-11-29T08:31:12.053Z,12.37
2022-11-29T08:33:42.686Z,12.05
2022-11-29T08:36:13.683Z,11.84
2022-11-29T08:38:41.489Z,11.64
2022-11-29T08:41:12.022Z,12.22
2022-11-29T08:43:39.947Z,12.21
2022-11-29T08:46:07.820Z,12.02
2022-11-29T08:48:36.892Z,12.09
2022-11-29T08:51:06.057Z,12.39
2022-11-29T08:53:46.079Z,12.47
2022-11-29T08:57:04.339Z,12.68
2022-11-29T08:59:03.176Z,12.48
2022-11-29T09:01:31.073Z,12.46
2022-11-29T09:04:02.820Z,12.25
2022-11-29T09:06:31.980Z,12.43
2022-11-29T09:09:01.922Z,12.59
2022-11-29T09:11:30.820Z,12.79
2022-11-29T09:14:00.141Z,12.83
2022-11-29T09:16:29.716Z,12.86
2022-11-29T09:18:57.668Z,12.42
2022-11-29T09:21:26.794Z,12.67
2022-11-29T09:23:58.762Z,12.69
2022-11-29T09:26:30.046Z,12.84
2022-11-29T09:29:01.122Z,13.06
2022-11-29T09:31:29.463Z,13.25
2022-11-29T09:33:57.719Z,13.02
2022-11-29T09:36:28.919Z,13.16
2022-11-29T09:38:57.506Z,13.31
2022-11-29T09:41:49.052Z,13.29
2022-11-29T09:44:21.070Z,13.26
2022-11-29T09:46:58.548Z,12.76
2022-11-29T09:49:44.506Z,13.07
2022-11-29T09:52:17.627Z,13.00
2022-11-29T09:54:49.972Z,12.88
2022-11-29T09:57:21.795Z,13.02
2022-11-29T09:59:50.977Z,13.19
2022-11-29T10:02:22.363Z,13.30
2022-11-29T10:04:54.072Z,13.47
2022-11-29T10:07:26.429Z,13.66
2022-11-29T10:09:56.516Z,13.29
2022-11-29T10:12:31.928Z,13.47
2022-11-29T10:15:04.742Z,13.50
2022-11-29T10:17:36.006Z,13.39
2022-11-29T10:20:07.890Z,13.21
2022-11-29T10:22:41.996Z,13.20
2022-11-29T10:25:11.393Z,13.02
2022-11-29T10:27:41.579Z,13.20
2022-11-29T10:30:15.138Z,13.40
2022-11-29T10:32:43.992Z,13.12
2022-11-29T10:35:14.850Z,13.29
2022-11-29T10:37:56.404Z,13.27
2022-11-29T10:40:34.804Z,13.22
2022-11-29T10:43:04.115Z,13.48
2022-11-29T10:45:34.072Z,13.41
2022-11-29T10:48:05.496Z,13.42
2022-11-29T10:50:35.417Z,13.10
2022-11-29T10:53:06.532Z,13.22
2022-11-29T10:55:37.939Z,13.52
2022-11-29T10:58:13.784Z,13.63
2022-11-29T11:00:46.615Z,13.62
2022-11-29T11:03:18.711Z,13.92
2022-11-29T11:05:59.018Z,14.06
2022-11-29T11:08:27.316Z,14.20
2022-11-29T11:11:01.217Z,14.33
2022-11-29T11:13:33.051Z,14.68
2022-11-29T11:16:10.030Z,14.66
2022-11-29T11:18:38.489Z,14.61
2022-11-29T11:21:09.833Z,14.06
2022-11-29T11:23:42.939Z,14.05
2022-11-29T11:26:13.138Z,14.19
2022-11-29T11:28:46.038Z,14.07
2022-11-29T11:31:14.635Z,13.89
2022-11-29T11:33:45.465Z,14.06
2022-11-29T11:36:14.984Z,13.69
2022-11-29T11:38:51.091Z,13.39
2022-11-29T11:41:22.494Z,13.61
2022-11-29T11:43:54.427Z,13.59
2022-11-29T11:46:22.645Z,13.40
2022-11-29T11:48:51.215Z,13.31
2022-11-29T11:51:24.026Z,13.70
2022-11-29T11:53:53.640Z,13.33
2022-11-29T11:56:21.790Z,13.28
2022-11-29T11:58:53.235Z,13.66
2022-11-29T12:01:37.826Z,13.65
2022-11-29T12:04:07.629Z,14.04
2022-11-29T12:06:43.296Z,13.96
2022-11-29T12:09:18.568Z,13.85
2022-11-29T12:11:52.514Z,13.91
2022-11-29T12:14:26.905Z,13.03
2022-11-29T12:17:03.730Z,13.39
2022-11-29T12:19:36.670Z,13.73
2022-11-29T12:22:08.341Z,14.15
2022-11-29T12:24:39.625Z,13.47
2022-11-29T12:27:11.002Z,13.44
2022-11-29T12:29:40.169Z,13.40
2022-11-29T12:32:18.591Z,13.36
2022-11-29T12:34:56.941Z,13.43
2022-11-29T12:37:32.227Z,13.34
2022-11-29T12:40:06.769Z,12.96
2022-11-29T12:42:45.802Z,12.80
2022-11-29T12:45:35.795Z,13.00
2022-11-29T12:48:11.952Z,12.83
2022-11-29T12:50:49.502Z,13.48
2022-11-29T12:53:29.161Z,14.03
2022-11-29T12:56:02.960Z,14.04
2022-11-29T12:58:41.273Z,14.00
2022-11-29T13:01:19.900Z,13.96
2022-11-29T13:03:53.481Z,13.55
2022-11-29T13:06:26.089Z,13.88
2022-11-29T13:09:03.644Z,13.71
2022-11-29T13:11:33.814Z,13.99
2022-11-29T13:14:34.839Z,13.70
2022-11-29T13:16:57.821Z,13.04
2022-11-29T13:19:33.058Z,13.11
2022-11-29T13:22:06.251Z,12.81
2022-11-29T13:24:42.518Z,13.32
2022-11-29T13:27:16.063Z,13.93
2022-11-29T13:29:44.268Z,13.30
2022-11-29T13:32:35.547Z,13.73
2022-11-29T13:35:08.489Z,13.56
2022-11-29T13:37:39.519Z,13.73
2022-11-29T13:40:22.952Z,13.84
2022-11-29T13:42:56.482Z,13.51
2022-11-29T13:45:27.914Z,12.96
2022-11-29T13:47:59.871Z,13.42
2022-11-29T13:50:39.867Z,13.83
2022-11-29T13:53:14.690Z,13.56
2022-11-29T13:55:47.212Z,13.31
2022-11-29T13:58:36.534Z,13.25
2022-11-29T14:01:08.352Z,13.29
2022-11-29T14:03:39.619Z,13.26
2022-11-29T14:06:15.493Z,12.79
2022-11-29T14:09:18.291Z,12.80
2022-11-29T14:11:50.044Z,12.93
2022-11-29T14:14:25.835Z,12.77
2022-11-29T14:16:56.029Z,12.67
2022-11-29T14:19:33.017Z,12.81
2022-11-29T14:22:28.677Z,12.89
2022-11-29T14:25:01.351Z,13.02
2022-11-29T14:27:56.213Z,12.80
2022-11-29T14:30:45.621Z,12.83
2022-11-29T14:33:22.743Z,12.53
2022-11-29T14:36:00.920Z,12.83
2022-11-29T14:38:31.627Z,12.96
2022-11-29T14:41:04.134Z,13.13
2022-11-29T14:43:34.300Z,13.00
2022-11-29T14:46:10.080Z,13.08
2022-11-29T14:48:38.205Z,13.01
2022-11-29T14:51:12.587Z,12.97
2022-11-29T14:53:42.144Z,12.99
2022-11-29T14:56:39.585Z,12.87
2022-11-29T14:59:38.947Z,12.79
2022-11-29T15:02:09.065Z,12.89
2022-11-29T15:04:38.019Z,12.98
2022-11-29T15:07:10.606Z,12.79
2022-11-29T15:09:39.599Z,12.82
2022-11-29T15:12:09.967Z,12.96
2022-11-29T15:14:46.934Z,12.87
2022-11-29T15:17:21.476Z,12.51
2022-11-29T15:20:07.559Z,12.55
2022-11-29T15:22:46.167Z,12.69
2022-11-29T15:25:18.118Z,12.58
2022-11-29T15:27:53.910Z,12.33
2022-11-29T15:30:28.811Z,12.50
2022-11-29T15:32:56.704Z,12.67
2022-11-29T15:35:24.640Z,12.68
2022-11-29T15:37:54.681Z,12.44
2022-11-29T15:40:24.710Z,12.30
2022-11-29T15:42:55.136Z,12.50
2022-11-29T15:45:28.952Z,12.43
2022-11-29T15:47:58.718Z,12.52
2022-11-29T15:50:27.581Z,12.17
2022-11-29T15:52:59.383Z,12.23
2022-11-29T15:55:28.544Z,12.34
2022-11-29T15:57:59.895Z,12.08
2022-11-29T16:00:32.834Z,12.07
2022-11-29T16:03:02.080Z,11.70
2022-11-29T16:05:32.972Z,11.70
2022-11-29T16:08:04.467Z,11.90
2022-11-29T16:10:37.024Z,11.96
2022-11-29T16:13:07.597Z,11.78
2022-11-29T16:15:37.618Z,11.90
2022-11-29T16:18:06.475Z,11.93
2022-11-29T16:20:34.384Z,12.41
2022-11-29T16:23:21.452Z,12.73
2022-11-29T16:25:57.524Z,12.58
2022-11-29T16:28:27.000Z,12.56
2022-11-29T16:30:54.856Z,12.58
2022-11-29T16:33:24.838Z,12.68
2022-11-29T16:35:53.028Z,12.78
2022-11-29T16:38:23.453Z,12.88
2022-11-29T16:41:06.351Z,12.23
2022-11-29T16:43:48.591Z,12.44
2022-11-29T16:46:30.078Z,12.67
2022-11-29T16:49:00.755Z,12.79
2022-11-29T16:51:37.313Z,12.39
2022-11-29T16:54:27.861Z,12.40
2022-11-29T16:56:57.228Z,12.20
2022-11-29T16:59:28.236Z,12.53
2022-11-29T17:01:57.143Z,12.27
2022-11-29T17:04:25.491Z,11.95
2022-11-29T17:06:53.995Z,12.25
2022-11-29T17:09:24.882Z,12.30
2022-11-29T17:11:54.333Z,12.43
2022-11-29T17:14:22.179Z,12.25
2022-11-29T17:16:50.439Z,12.38
2022-11-29T17:19:19.665Z,12.54
2022-11-29T17:21:47.535Z,12.11
2022-11-29T17:24:16.654Z,12.41
2022-11-29T17:26:45.002Z,12.48
2022-11-29T17:29:15.237Z,12.40
2022-11-29T17:31:44.620Z,12.03
2022-11-29T17:34:12.776Z,12.13
2022-11-29T17:36:40.559Z,12.17
2022-11-29T17:39:09.133Z,12.10
2022-11-29T17:41:36.911Z,12.07
2022-11-29T17:44:05.305Z,12.32
2022-11-29T17:46:35.870Z,12.20
2022-11-29T17:49:05.409Z,12.28
2022-11-29T17:54:22.303Z,12.35
2022-11-29T17:56:50.553Z,12.15
2022-11-29T17:59:18.470Z,12.18
2022-11-29T18:01:48.073Z,12.23
2022-11-29T18:04:16.124Z,12.17
2022-11-29T18:06:45.752Z,12.27
2022-11-29T18:09:13.838Z,12.25
2022-11-29T18:11:48.057Z,12.18
2022-11-29T18:14:17.994Z,12.39
2022-11-29T18:16:47.273Z,12.03
2022-11-29T18:19:17.595Z,11.63
2022-11-29T18:21:45.378Z,11.34
2022-11-29T18:24:13.424Z,11.28
2022-11-29T18:26:41.505Z,11.61
2022-11-29T18:29:09.912Z,11.41
2022-11-29T18:31:38.700Z,11.44
2022-11-29T18:34:09.909Z,11.52
2022-11-29T18:36:40.064Z,11.73
2022-11-29T18:39:09.981Z,12.07
2022-11-29T18:41:38.689Z,11.92
2022-11-29T18:44:07.928Z,11.96
2022-11-29T18:46:37.309Z,11.92
2022-11-29T18:49:08.118Z,12.11
2022-11-29T18:51:36.772Z,12.16
2022-11-29T18:54:05.079Z,12.41
2022-11-29T18:56:35.508Z,12.14
2022-11-29T18:59:05.624Z,11.98
2022-11-29T19:01:35.305Z,11.90
2022-11-29T19:04:03.301Z,11.66
2022-11-29T19:06:39.344Z,11.68
2022-11-29T19:09:09.802Z,11.95
2022-11-29T19:11:37.666Z,12.07
2022-11-29T19:14:11.081Z,12.06
2022-11-29T19:16:40.606Z,12.11
2022-11-29T19:19:08.465Z,11.89
2022-11-29T19:21:39.645Z,11.94
2022-11-29T19:24:13.612Z,12.04
2022-11-29T19:26:42.946Z,12.09
2022-11-29T19:29:11.015Z,12.13
2022-11-29T19:31:39.402Z,12.09
2022-11-29T19:34:07.390Z,11.86
2022-11-29T19:36:37.031Z,11.71
2022-11-29T19:39:06.253Z,11.46
2022-11-29T19:41:35.228Z,11.58
2022-11-29T19:44:05.085Z,11.51
2022-11-29T19:46:34.611Z,11.60
2022-11-29T19:49:03.332Z,11.73
2022-11-29T19:51:31.811Z,11.89
2022-11-29T19:54:00.877Z,12.18
2022-11-29T19:56:31.152Z,11.89
2022-11-29T19:58:59.788Z,11.75
2022-11-29T20:01:35.941Z,11.55
2022-11-29T20:04:07.576Z,11.61
2022-11-29T20:06:35.847Z,11.24
2022-11-29T20:09:04.020Z,11.50
2022-11-29T20:11:33.179Z,11.56
2022-11-29T20:14:02.819Z,11.83
2022-11-29T20:16:31.472Z,11.99
2022-11-29T20:18:59.874Z,11.92
2022-11-29T20:21:29.537Z,11.69
2022-11-29T20:23:58.918Z,11.60
2022-11-29T20:26:27.589Z,11.63
2022-11-29T20:28:56.706Z,11.78
2022-11-29T20:31:24.655Z,11.33
2022-11-29T20:33:53.931Z,11.44
2022-11-29T20:36:31.742Z,11.36
2022-11-29T20:39:04.936Z,11.38
2022-11-29T20:41:36.951Z,11.79
2022-11-29T20:44:06.588Z,11.86
2022-11-29T20:46:34.687Z,11.75
2022-11-29T20:49:06.720Z,11.64
2022-11-29T20:51:41.123Z,11.93
2022-11-29T20:54:10.861Z,11.85
2022-11-29T20:56:38.694Z,11.44
2022-11-29T20:59:07.767Z,11.72
2022-11-29T21:01:35.638Z,11.84
2022-11-29T21:04:03.479Z,11.98
2022-11-29T21:06:34.283Z,11.48
2022-11-29T21:09:02.132Z,11.67
2022-11-29T21:11:30.127Z,11.18
2022-11-29T21:13:58.297Z,11.39
2022-11-29T21:16:30.298Z,11.57
2022-11-29T21:19:01.191Z,11.81
2022-11-29T21:21:33.093Z,12.08
2022-11-29T21:24:04.668Z,11.67
2022-11-29T21:26:41.368Z,11.71
2022-11-29T21:29:16.216Z,11.89
2022-11-29T21:31:46.130Z,11.91
2022-11-29T21:34:14.286Z,11.82
2022-11-29T21:36:42.275Z,11.77
2022-11-29T21:39:12.640Z,11.60
2022-11-29T21:41:40.744Z,11.62
2022-11-29T21:44:08.871Z,11.72
2022-11-29T21:46:36.858Z,11.77
2022-11-29T21:49:06.443Z,11.83
2022-11-29T21:51:34.294Z,11.82
2022-11-29T21:54:02.591Z,11.88
2022-11-29T21:56:30.481Z,11.22
2022-11-29T21:58:58.257Z,11.35
2022-11-29T22:01:27.517Z,11.50
2022-11-29T22:03:55.506Z,11.73
2022-11-29T22:06:26.117Z,11.61
2022-11-29T22:08:53.989Z,11.22
2022-11-29T22:11:31.447Z,11.46
2022-11-29T22:14:15.578Z,11.37
2022-11-29T22:16:44.591Z,11.30
2022-11-29T22:19:14.022Z,11.41
2022-11-29T22:21:44.588Z,11.69
2022-11-29T22:24:13.315Z,11.79
2022-11-29T22:26:42.632Z,11.75
2022-11-29T22:29:11.443Z,11.75
2022-11-29T22:31:39.249Z,12.00
2022-11-29T22:34:07.167Z,12.21
2022-11-29T22:36:35.842Z,12.36
2022-11-29T22:39:05.712Z,12.22
2022-11-29T22:41:34.205Z,12.13
2022-11-29T22:44:02.052Z,12.01
2022-11-29T22:46:30.392Z,11.75
2022-11-29T22:49:00.438Z,11.68
2022-11-29T22:51:30.396Z,12.00
2022-11-29T22:53:59.377Z,12.13
2022-11-29T22:56:30.253Z,12.07
2022-11-29T22:58:59.029Z,11.91
2022-11-29T23:01:28.242Z,11.41
2022-11-29T23:03:57.895Z,11.44
2022-11-29T23:06:26.880Z,10.93
2022-11-29T23:08:56.232Z,10.92
2022-11-29T23:11:26.075Z,10.88
2022-11-29T23:13:56.236Z,11.13
2022-11-29T23:16:25.506Z,11.03
2022-11-29T23:18:54.281Z,10.81
2022-11-29T23:21:23.902Z,11.07
2022-11-29T23:23:56.391Z,11.55
2022-11-29T23:26:26.607Z,11.63
2022-11-29T23:28:56.191Z,11.77
2022-11-29T23:31:24.725Z,11.74
2022-11-29T23:33:52.771Z,11.75
2022-11-29T23:36:20.907Z,11.67
2022-11-29T23:38:48.977Z,11.07
2022-11-29T23:41:16.773Z,11.24
2022-11-29T23:43:44.567Z,11.21
2022-11-29T23:46:16.332Z,11.02
2022-11-29T23:48:44.742Z,11.16
2022-11-29T23:51:13.182Z,10.72
2022-11-29T23:53:41.183Z,10.94
2022-11-29T23:56:11.641Z,11.28
2022-11-29T23:58:39.430Z,11.45
